San Jose, Costa Rica

9:15 AM CST on August 28, 2014 (GMT -0600)
Pozos de Santa Ana | Change Station
CLOSE
Current Station
Personal Weather Station
Location: San Josť, SAN JOSť
Elevation: 2825 ft
Nearby Weather Stations

Elev 2825 ft 9.96 °N, 84.19 °W | Updated 49 seconds ago

Clear
Clear
76.8 °F
Feels Like 78 °F
N
1.6
Wind Variable Wind from SE
Gusts 3.8 mph

Today
High -- | Low -- °F
--% Chance of Precip.
Yesterday
High -- | Low -- °F
Precip. -- in
5:27 AM 5:48 PM
Waxing Crescent, 8% visible
Pressure 30.04 in
Visibility -9999.0 miles
Clouds
Heat Index 78 °F
Dew Point 69 °F
Humidity 76%
Rainfall 0.00 in
Snow Depth Not available.
UV Not available.
Pollen Not available.
Air Quality Not available.
Flu Activity Not available.
METAR MROC 281500Z 24004KT CAVOK 23/19 A3004 NOSIG

More Conditions Fewer Conditions

Pressure 30.04 in
Visibility -9999.0 miles
Clouds
Heat Index 78 °F
Dew Point 69 °F
Humidity 76%
Rainfall 0.00 in
Snow Depth Not available.
UV Not available.
Pollen Not available.
Air Quality Not available.
Flu Activity Not available.
METAR MROC 281500Z 24004KT CAVOK 23/19 A3004 NOSIG

More Conditions Fewer Conditions

10-Day Weather Forecast

Almanac

Astronomy

Aug. 28, 2014 Rise Set
Actual Time 5:27 AM CST 5:48 PM CST
Civil Twilight 5:06 AM CST 6:09 PM CST
Nautical Twilight 4:41 AM CST 6:34 PM CST
Astronomical Twilight 4:16 AM CST 6:59 PM CST
Moon 7:40 AM CST 7:54 PM CST
Length of Visible Light 13h 02m
Length of Day
12h 20m
Tomorrow will be 0m 32s shorter.
Waxing Crescent, 8% of the Moon is Illuminated
Today
Waxing Crescent
Sep 2
First Quarter
Sep 8
Full
Sep 15
Last Quarter
Sep 24
New

Today's Extremes

Country Highs Country Lows

Community

WunderPhotos

Upload Photos

1,747,982 photos uploaded!

Nearby

Snow Depth

Not available.

Earthquake Activity

City Distance Mag. Time & Date
No recent earthquake activity has been reported nearby.
Minimum magnitude displayed is 2.5.

Coastal Water Temperatures

Place Temperature
No Stations Reporting

Nearby Weather Stations